createdAt,value
2019-02-06T00:00:53.186Z,0.00
2019-02-06T00:01:53.199Z,0.00
2019-02-06T00:02:53.202Z,0.00
2019-02-06T00:03:53.146Z,0.00
2019-02-06T00:04:53.142Z,0.00
2019-02-06T05:44:17.879Z,0.00
2019-02-06T05:45:17.821Z,0.00
2019-02-06T05:46:17.833Z,0.00
2019-02-06T05:47:17.799Z,0.00
2019-02-06T05:48:17.785Z,0.00
2019-02-06T05:49:17.798Z,0.00
2019-02-06T05:50:17.803Z,0.00
2019-02-06T05:51:17.784Z,0.00
2019-02-06T05:52:17.762Z,0.00
2019-02-06T05:53:17.762Z,0.00
2019-02-06T05:54:17.722Z,0.00
2019-02-06T05:55:17.730Z,0.00
2019-02-06T05:56:17.722Z,0.00
2019-02-06T05:57:17.707Z,0.00
2019-02-06T05:58:17.679Z,0.00
2019-02-06T05:59:17.722Z,0.00
2019-02-06T06:00:17.665Z,0.00
2019-02-06T06:01:17.680Z,0.00
2019-02-06T06:02:17.642Z,0.00
2019-02-06T06:03:17.635Z,0.00
2019-02-06T06:06:14.874Z,0.00
2019-02-06T06:07:14.831Z,0.00
2019-02-06T06:08:14.837Z,0.00
2019-02-06T06:09:14.821Z,0.00
2019-02-06T06:10:14.821Z,0.00
2019-02-06T06:11:14.807Z,0.00
2019-02-06T06:12:14.779Z,0.00
2019-02-06T06:13:18.255Z,0.00
2019-02-06T06:14:14.756Z,0.00
2019-02-06T06:15:14.763Z,0.00
2019-02-06T06:16:14.756Z,0.00
2019-02-06T06:17:14.778Z,0.00
2019-02-06T06:18:14.714Z,0.00
2019-02-06T06:19:14.735Z,0.00
2019-02-06T06:20:14.736Z,0.00
2019-02-06T06:21:14.679Z,0.00
2019-02-06T06:22:14.691Z,0.00
2019-02-06T06:23:14.660Z,0.00
2019-02-06T06:24:14.695Z,0.00
2019-02-06T06:25:14.651Z,0.00
2019-02-06T06:26:14.640Z,0.00
2019-02-06T06:27:14.651Z,0.00
2019-02-06T06:28:14.625Z,0.00
2019-02-06T06:29:14.610Z,0.00
2019-02-06T06:30:14.597Z,0.00
2019-02-06T06:31:14.598Z,0.00
2019-02-06T06:32:14.608Z,0.00
2019-02-06T06:33:14.552Z,0.00
2019-02-06T06:34:14.554Z,0.00
2019-02-06T06:35:14.551Z,0.00
2019-02-06T06:36:14.519Z,0.00
2019-02-06T06:37:14.541Z,0.00
2019-02-06T06:38:14.519Z,0.00
2019-02-06T06:39:14.512Z,0.00
2019-02-06T06:40:14.479Z,0.00
2019-02-06T06:41:14.498Z,0.00
2019-02-06T06:42:14.476Z,0.00
2019-02-06T06:43:16.278Z,0.00
2019-02-06T06:44:14.875Z,0.00
2019-02-06T06:45:14.423Z,0.00
2019-02-06T06:46:14.422Z,0.00
2019-02-06T06:47:14.441Z,0.00
2019-02-06T06:48:14.399Z,0.00
2019-02-06T06:49:14.379Z,0.00
2019-02-06T06:50:14.367Z,0.00
2019-02-06T06:51:14.355Z,0.00
2019-02-06T06:52:14.382Z,0.00
2019-02-06T06:53:14.338Z,0.00
2019-02-06T06:54:14.322Z,0.00
2019-02-06T06:55:14.315Z,0.00
2019-02-06T06:56:14.418Z,0.00
2019-02-06T06:57:14.311Z,0.00
2019-02-06T06:58:14.282Z,0.00
2019-02-06T06:59:14.268Z,0.00
2019-02-06T07:00:14.259Z,0.00
2019-02-06T07:01:14.256Z,0.00
2019-02-06T07:02:14.273Z,0.00
2019-02-06T07:03:14.229Z,0.00
2019-02-06T07:04:14.216Z,0.00
2019-02-06T07:05:14.206Z,0.00
2019-02-06T07:06:14.200Z,0.00
2019-02-06T07:07:14.204Z,5.62
2019-02-06T07:08:14.184Z,5.62
2019-02-06T07:09:14.169Z,5.62
2019-02-06T07:10:14.164Z,5.62
2019-02-06T07:11:14.144Z,5.62
2019-02-06T07:12:14.159Z,5.62
2019-02-06T07:13:14.120Z,5.62
2019-02-06T07:14:14.109Z,5.62
2019-02-06T07:15:14.105Z,5.62
2019-02-06T07:16:14.088Z,11.25
2019-02-06T07:17:14.111Z,11.25
2019-02-06T07:18:14.067Z,11.25
2019-02-06T07:19:14.059Z,11.25
2019-02-06T07:20:14.043Z,11.25
2019-02-06T07:21:14.037Z,11.25
2019-02-06T07:22:14.042Z,16.88
2019-02-06T07:23:14.024Z,16.88
2019-02-06T07:24:13.998Z,16.88
2019-02-06T07:25:13.988Z,16.88
2019-02-06T07:26:13.979Z,22.50
2019-02-06T07:27:13.994Z,22.50
2019-02-06T07:28:13.959Z,22.50
2019-02-06T07:29:13.947Z,22.50
2019-02-06T07:30:13.937Z,22.50
2019-02-06T07:31:13.925Z,28.12
2019-02-06T07:32:13.931Z,28.12
2019-02-06T07:33:13.931Z,28.12
2019-02-06T07:34:13.895Z,28.12
2019-02-06T07:35:13.882Z,33.75
2019-02-06T07:36:13.893Z,33.75
2019-02-06T07:37:13.880Z,33.75
2019-02-06T07:38:23.979Z,33.75
2019-02-06T07:39:14.855Z,33.75
2019-02-06T07:40:13.830Z,33.75
2019-02-06T07:41:13.814Z,39.38
2019-02-06T07:42:13.824Z,39.38
2019-02-06T07:43:13.796Z,39.38
2019-02-06T07:44:13.780Z,39.38
2019-02-06T07:45:13.770Z,45.00
2019-02-06T07:46:13.770Z,45.00
2019-02-06T07:47:13.754Z,45.00
2019-02-06T07:48:13.765Z,45.00
2019-02-06T07:49:13.731Z,45.00
2019-02-06T07:50:13.718Z,45.00
2019-02-06T07:51:13.709Z,45.00
2019-02-06T07:52:13.699Z,45.00
2019-02-06T07:53:13.727Z,45.00
2019-02-06T07:54:13.685Z,45.00
2019-02-06T07:55:13.662Z,45.00
2019-02-06T07:56:13.659Z,45.00
2019-02-06T07:57:13.640Z,45.00
2019-02-06T07:58:13.647Z,45.00
2019-02-06T07:59:13.642Z,45.00
2019-02-06T08:00:13.607Z,45.00
2019-02-06T08:01:13.598Z,45.00
2019-02-06T08:02:13.584Z,45.00
2019-02-06T08:03:13.595Z,45.00
2019-02-06T08:04:13.582Z,45.00
2019-02-06T08:05:13.552Z,45.00
2019-02-06T08:06:13.541Z,45.00
2019-02-06T08:07:13.530Z,45.00
2019-02-06T08:08:13.617Z,45.00
2019-02-06T08:09:13.509Z,45.00
2019-02-06T08:10:13.507Z,45.00
2019-02-06T08:11:13.487Z,45.00
2019-02-06T08:12:13.477Z,45.00
2019-02-06T08:13:13.485Z,45.00
2019-02-06T08:14:13.456Z,45.00
2019-02-06T08:15:13.445Z,45.00
2019-02-06T08:16:13.449Z,45.00
2019-02-06T08:17:13.422Z,45.00
2019-02-06T08:18:13.431Z,45.00
2019-02-06T08:19:13.400Z,45.00
2019-02-06T08:20:13.393Z,50.62
2019-02-06T08:21:13.380Z,50.62
2019-02-06T08:22:13.392Z,50.62
2019-02-06T08:23:13.380Z,50.62
2019-02-06T08:24:13.349Z,50.62
2019-02-06T08:25:13.333Z,50.62
2019-02-06T08:26:13.323Z,50.62
2019-02-06T08:27:13.321Z,50.62
2019-02-06T08:28:13.323Z,50.62
2019-02-06T08:29:13.307Z,50.62
2019-02-06T08:30:13.309Z,50.62
2019-02-06T08:31:13.285Z,45.00
2019-02-06T08:32:13.264Z,45.00
2019-02-06T08:33:13.273Z,45.00
2019-02-06T08:34:13.243Z,45.00
2019-02-06T08:35:13.236Z,45.00
2019-02-06T08:36:13.216Z,45.00
2019-02-06T08:37:13.205Z,45.00
2019-02-06T08:38:13.212Z,45.00
2019-02-06T08:39:13.186Z,45.00
2019-02-06T08:40:13.182Z,50.62
2019-02-06T08:41:13.161Z,50.62
2019-02-06T08:42:13.152Z,50.62
2019-02-06T08:43:13.163Z,50.62
2019-02-06T08:44:13.130Z,50.62
2019-02-06T08:45:13.141Z,50.62
2019-02-06T08:46:13.123Z,50.62
2019-02-06T08:47:13.108Z,50.62
2019-02-06T08:48:13.111Z,50.62
2019-02-06T08:49:13.074Z,50.62
2019-02-06T08:50:13.064Z,50.62
2019-02-06T08:51:13.053Z,56.25
2019-02-06T08:52:13.044Z,56.25
2019-02-06T08:53:13.071Z,56.25
2019-02-06T08:54:13.022Z,56.25
2019-02-06T08:55:13.014Z,56.25
2019-02-06T08:56:13.001Z,56.25
2019-02-06T08:57:12.992Z,56.25
2019-02-06T08:58:13.003Z,56.25
2019-02-06T08:59:12.976Z,56.25
2019-02-06T09:00:12.957Z,56.25
2019-02-06T09:01:12.944Z,56.25
2019-02-06T09:02:12.937Z,61.88
2019-02-06T09:03:12.982Z,61.88
2019-02-06T09:04:12.913Z,61.88
2019-02-06T09:05:12.905Z,61.88
2019-02-06T09:06:12.890Z,61.88
2019-02-06T09:07:12.880Z,67.50
2019-02-06T09:08:12.924Z,67.50
2019-02-06T09:09:12.864Z,67.50
2019-02-06T09:10:13.433Z,73.12
2019-02-06T09:11:12.852Z,73.12
2019-02-06T09:12:12.831Z,78.75
2019-02-06T09:13:12.837Z,84.38
2019-02-06T09:14:12.813Z,84.38
2019-02-06T09:15:12.800Z,90.00
2019-02-06T09:16:12.783Z,90.00
2019-02-06T09:17:12.781Z,95.62
2019-02-06T09:18:12.783Z,95.62
2019-02-06T09:19:12.762Z,101.25
2019-02-06T09:20:12.772Z,101.25
2019-02-06T09:21:12.730Z,106.88
2019-02-06T09:22:12.737Z,106.88
2019-02-06T09:23:12.710Z,106.88
2019-02-06T09:24:12.719Z,106.88
2019-02-06T09:25:12.687Z,106.88
2019-02-06T09:26:12.698Z,106.88
2019-02-06T09:27:12.665Z,112.50
2019-02-06T09:28:12.656Z,112.50
2019-02-06T09:29:12.670Z,118.12
2019-02-06T09:30:12.633Z,118.12
2019-02-06T09:31:12.643Z,118.12
2019-02-06T09:32:12.616Z,123.75
2019-02-06T09:33:12.603Z,123.75
2019-02-06T09:34:12.621Z,123.75
2019-02-06T09:35:12.578Z,129.38
2019-02-06T09:36:12.574Z,129.38
2019-02-06T09:37:12.563Z,129.38
2019-02-06T09:38:12.548Z,135.00
2019-02-06T09:39:12.561Z,135.00
2019-02-06T09:40:12.549Z,140.62
2019-02-06T09:41:12.514Z,146.25
2019-02-06T09:42:12.505Z,151.88
2019-02-06T09:43:12.493Z,157.50
2019-02-06T09:44:12.522Z,151.88
2019-02-06T09:45:12.472Z,151.88
2019-02-06T09:46:12.478Z,151.88
2019-02-06T09:47:12.453Z,151.88
2019-02-06T09:48:12.442Z,151.88
2019-02-06T09:49:15.005Z,151.88
2019-02-06T09:50:12.421Z,151.88
2019-02-06T09:51:12.407Z,157.50
2019-02-06T09:52:12.410Z,157.50
2019-02-06T09:53:12.387Z,157.50
2019-02-06T09:54:12.422Z,163.12
2019-02-06T09:55:12.364Z,163.12
2019-02-06T09:56:12.357Z,168.75
2019-02-06T09:57:12.349Z,174.38
2019-02-06T09:58:12.350Z,180.00
2019-02-06T09:59:12.331Z,196.88
2019-02-06T10:00:12.316Z,196.88
2019-02-06T10:01:12.315Z,196.88
2019-02-06T10:02:12.295Z,196.88
2019-02-06T10:03:12.302Z,196.88
2019-02-06T10:04:12.269Z,196.88
2019-02-06T10:05:12.257Z,196.88
2019-02-06T10:06:12.259Z,208.12
2019-02-06T10:07:12.251Z,219.38
2019-02-06T10:08:12.248Z,236.25
2019-02-06T10:09:22.353Z,236.25
2019-02-06T10:10:13.203Z,258.75
2019-02-06T10:11:12.199Z,258.75
2019-02-06T10:12:12.182Z,241.88
2019-02-06T10:13:12.197Z,241.88
2019-02-06T10:14:12.163Z,236.25
2019-02-06T10:15:12.158Z,225.00
2019-02-06T10:16:12.148Z,236.25
2019-02-06T10:17:12.142Z,219.38
2019-02-06T10:18:12.140Z,230.62
2019-02-06T10:19:12.114Z,236.25
2019-02-06T10:20:12.104Z,213.75
2019-02-06T10:21:12.094Z,213.75
2019-02-06T10:22:12.085Z,202.50
2019-02-06T10:23:12.112Z,196.88
2019-02-06T10:24:12.056Z,196.88
2019-02-06T10:25:12.048Z,196.88
2019-02-06T10:26:12.046Z,202.50
2019-02-06T10:27:12.028Z,202.50
2019-02-06T10:28:12.035Z,202.50
2019-02-06T10:29:12.003Z,208.12
2019-02-06T10:30:12.004Z,208.12
2019-02-06T10:31:11.983Z,213.75
2019-02-06T10:32:11.979Z,225.00
2019-02-06T10:33:11.981Z,270.00
2019-02-06T10:34:11.955Z,286.88
2019-02-06T10:35:11.945Z,281.25
2019-02-06T10:36:11.937Z,275.62
2019-02-06T10:37:11.920Z,270.00
2019-02-06T10:38:11.929Z,281.25
2019-02-06T10:39:11.902Z,275.62
2019-02-06T10:40:11.892Z,275.62
2019-02-06T10:41:11.885Z,303.75
2019-02-06T10:42:11.868Z,315.00
2019-02-06T10:43:11.877Z,320.62
2019-02-06T10:44:11.848Z,337.50
2019-02-06T10:45:11.838Z,360.00
2019-02-06T10:46:11.826Z,399.38
2019-02-06T10:47:11.823Z,365.62
2019-02-06T10:48:11.825Z,354.38
2019-02-06T10:49:11.796Z,354.38
2019-02-06T10:50:11.807Z,348.75
2019-02-06T10:51:11.777Z,360.00
2019-02-06T10:52:11.764Z,360.00
2019-02-06T10:53:11.781Z,360.00
2019-02-06T10:54:14.619Z,393.75
2019-02-06T10:55:11.732Z,388.12
2019-02-06T10:56:11.740Z,365.62
2019-02-06T10:57:11.714Z,354.38
2019-02-06T10:58:11.699Z,354.38
2019-02-06T10:59:11.709Z,348.75
2019-02-06T11:00:11.702Z,309.38
2019-02-06T11:01:11.666Z,303.75
2019-02-06T11:02:11.659Z,298.12
2019-02-06T11:03:11.652Z,281.25
2019-02-06T11:04:11.657Z,270.00
2019-02-06T11:05:11.622Z,253.12
2019-02-06T11:06:11.627Z,247.50
2019-02-06T11:07:11.700Z,247.50
2019-02-06T11:08:11.590Z,241.88
2019-02-06T11:09:11.600Z,230.62
2019-02-06T11:10:11.570Z,213.75
2019-02-06T11:11:11.558Z,213.75
2019-02-06T11:12:11.550Z,213.75
2019-02-06T11:13:11.564Z,219.38
2019-02-06T11:14:11.561Z,230.62
2019-02-06T11:15:11.517Z,241.88
2019-02-06T11:16:11.519Z,247.50
2019-02-06T11:17:11.516Z,241.88
2019-02-06T11:18:11.492Z,230.62
2019-02-06T11:19:11.494Z,230.62
2019-02-06T11:20:11.465Z,236.25
2019-02-06T11:21:11.458Z,241.88
2019-02-06T11:22:11.439Z,241.88
2019-02-06T11:23:11.429Z,258.75
2019-02-06T11:24:11.439Z,236.25
2019-02-06T11:25:11.411Z,230.62
2019-02-06T11:26:11.397Z,219.38
2019-02-06T11:27:11.384Z,219.38
2019-02-06T11:28:11.386Z,208.12
2019-02-06T11:29:11.396Z,191.25
2019-02-06T11:30:11.352Z,180.00
2019-02-06T11:31:11.339Z,180.00
2019-02-06T11:32:11.339Z,185.62
2019-02-06T11:33:11.320Z,185.62
2019-02-06T11:34:11.331Z,180.00
2019-02-06T11:35:11.298Z,180.00
2019-02-06T11:36:11.306Z,191.25
2019-02-06T11:37:11.284Z,196.88
2019-02-06T11:38:11.271Z,202.50
2019-02-06T11:39:11.275Z,196.88
2019-02-06T11:40:11.252Z,196.88
2019-02-06T11:41:11.234Z,196.88
2019-02-06T11:42:11.223Z,196.88
2019-02-06T11:43:11.210Z,202.50
2019-02-06T11:44:11.234Z,208.12
2019-02-06T11:45:11.190Z,213.75
2019-02-06T11:46:11.508Z,213.75
2019-02-06T11:47:11.196Z,213.75
2019-02-06T11:48:11.159Z,219.38
2019-02-06T11:49:11.165Z,219.38
2019-02-06T11:50:11.143Z,219.38
2019-02-06T11:51:11.124Z,219.38
2019-02-06T11:52:11.117Z,219.38
2019-02-06T11:53:11.110Z,230.62
2019-02-06T11:54:11.118Z,253.12
2019-02-06T11:55:11.082Z,286.88
2019-02-06T11:56:11.080Z,315.00
2019-02-06T11:57:11.066Z,298.12
2019-02-06T11:58:11.056Z,331.88
2019-02-06T11:59:11.084Z,348.75
2019-02-06T12:00:11.025Z,405.00
2019-02-06T12:01:11.017Z,331.88
2019-02-06T12:02:11.012Z,348.75
2019-02-06T12:03:10.994Z,478.12
2019-02-06T12:04:11.004Z,444.38
2019-02-06T12:05:10.977Z,427.50
2019-02-06T12:06:10.965Z,489.38
2019-02-06T12:07:10.950Z,624.38
2019-02-06T12:08:12.646Z,961.88
2019-02-06T12:09:10.983Z,933.75
2019-02-06T12:10:10.931Z,939.38
2019-02-06T12:11:10.906Z,928.12
2019-02-06T12:12:10.902Z,1096.88
2019-02-06T12:13:10.887Z,1198.12
2019-02-06T12:14:10.890Z,1237.50
2019-02-06T12:15:10.869Z,1293.75
2019-02-06T12:16:10.850Z,568.12
2019-02-06T12:17:10.839Z,787.50
2019-02-06T12:18:10.832Z,635.62
2019-02-06T12:19:10.838Z,1198.12
2019-02-06T12:20:10.812Z,888.75
2019-02-06T12:21:10.819Z,1293.75
2019-02-06T12:22:10.794Z,922.50
2019-02-06T12:23:10.775Z,1147.50
2019-02-06T12:24:10.785Z,961.88
2019-02-06T12:25:10.750Z,1035.00
2019-02-06T12:26:10.744Z,916.88
2019-02-06T12:27:10.729Z,573.75
2019-02-06T12:28:10.733Z,393.75
2019-02-06T12:29:10.744Z,326.25
2019-02-06T12:30:10.710Z,343.12
2019-02-06T12:31:10.693Z,348.75
2019-02-06T12:32:10.678Z,326.25
2019-02-06T12:33:10.663Z,253.12
2019-02-06T12:34:10.651Z,174.38
2019-02-06T12:35:10.763Z,146.25
2019-02-06T12:36:10.646Z,135.00
2019-02-06T12:37:10.620Z,135.00
2019-02-06T12:38:10.623Z,135.00
2019-02-06T12:39:10.604Z,129.38
2019-02-06T12:40:21.210Z,129.38
2019-02-06T12:41:11.580Z,123.75
2019-02-06T12:42:10.565Z,123.75
2019-02-06T12:43:10.859Z,123.75
2019-02-06T12:44:10.550Z,129.38
2019-02-06T12:45:10.551Z,118.12
2019-02-06T12:46:10.524Z,112.50
2019-02-06T12:47:10.509Z,112.50
2019-02-06T12:48:10.497Z,106.88
2019-02-06T12:49:10.487Z,118.12
2019-02-06T12:50:10.505Z,118.12
2019-02-06T12:51:10.481Z,129.38
2019-02-06T12:52:10.459Z,174.38
2019-02-06T12:53:10.442Z,174.38
2019-02-06T12:54:10.433Z,174.38
2019-02-06T12:55:10.450Z,180.00
2019-02-06T12:56:10.410Z,196.88
2019-02-06T12:57:10.408Z,213.75
2019-02-06T12:58:10.400Z,213.75
2019-02-06T12:59:10.377Z,219.38
2019-02-06T13:00:10.399Z,225.00
2019-02-06T13:01:10.357Z,219.38
2019-02-06T13:02:10.348Z,202.50
2019-02-06T13:03:10.336Z,191.25
2019-02-06T13:04:10.321Z,185.62
2019-02-06T13:05:10.340Z,180.00
2019-02-06T13:06:10.297Z,168.75
2019-02-06T13:07:10.293Z,174.38
2019-02-06T13:08:10.279Z,180.00
2019-02-06T13:09:10.264Z,168.75
2019-02-06T13:10:10.290Z,163.12
2019-02-06T13:11:10.248Z,146.25
2019-02-06T13:12:10.237Z,135.00
2019-02-06T13:13:10.224Z,123.75
2019-02-06T13:14:10.225Z,101.25
2019-02-06T13:15:10.238Z,101.25
2019-02-06T13:16:10.200Z,106.88
2019-02-06T13:17:10.183Z,84.38
2019-02-06T13:18:10.164Z,78.75
2019-02-06T13:19:10.162Z,78.75
2019-02-06T13:20:10.173Z,61.88
2019-02-06T13:21:10.131Z,61.88
2019-02-06T13:22:10.124Z,67.50
2019-02-06T13:23:10.228Z,78.75
2019-02-06T13:24:10.103Z,78.75
2019-02-06T13:25:10.108Z,73.12
2019-02-06T13:26:10.080Z,67.50
2019-02-06T13:27:10.073Z,73.12
2019-02-06T13:28:10.056Z,78.75
2019-02-06T13:29:10.050Z,67.50
2019-02-06T13:30:10.056Z,73.12
2019-02-06T13:31:10.033Z,73.12
2019-02-06T13:32:10.016Z,73.12
2019-02-06T13:33:11.742Z,73.12
2019-02-06T13:34:10.037Z,67.50
2019-02-06T13:35:10.033Z,67.50
2019-02-06T13:36:09.990Z,61.88
2019-02-06T13:37:09.968Z,67.50
2019-02-06T13:38:09.953Z,67.50
2019-02-06T13:39:09.942Z,67.50
2019-02-06T13:40:09.963Z,67.50
2019-02-06T13:41:09.919Z,67.50
2019-02-06T13:42:09.908Z,67.50
2019-02-06T13:43:09.892Z,67.50
2019-02-06T13:44:09.880Z,67.50
2019-02-06T13:45:09.896Z,73.12
2019-02-06T13:46:09.862Z,73.12
2019-02-06T13:47:09.871Z,73.12
2019-02-06T13:48:09.837Z,78.75
2019-02-06T13:49:09.825Z,78.75
2019-02-06T13:50:21.366Z,73.12
2019-02-06T13:51:17.415Z,67.50
2019-02-06T13:52:10.798Z,73.12
2019-02-06T13:53:09.784Z,73.12
2019-02-06T13:54:09.783Z,61.88
2019-02-06T13:55:09.785Z,61.88
2019-02-06T13:56:09.750Z,61.88
2019-02-06T13:57:09.758Z,61.88
2019-02-06T13:58:19.730Z,56.25
2019-02-06T13:59:10.730Z,50.62
2019-02-06T14:00:09.731Z,50.62
2019-02-06T14:01:09.700Z,50.62
2019-02-06T14:02:09.689Z,50.62
2019-02-06T14:03:09.677Z,50.62
2019-02-06T14:04:09.673Z,50.62
2019-02-06T14:05:09.675Z,50.62
2019-02-06T14:06:11.519Z,50.62
2019-02-06T14:07:09.632Z,50.62
2019-02-06T14:08:09.627Z,45.00
2019-02-06T14:09:09.607Z,39.38
2019-02-06T14:10:09.610Z,39.38
2019-02-06T14:11:09.608Z,39.38
2019-02-06T14:12:09.574Z,45.00
2019-02-06T14:13:09.564Z,45.00
2019-02-06T14:14:09.575Z,45.00
2019-02-06T14:15:09.541Z,45.00
2019-02-06T14:16:09.554Z,45.00
2019-02-06T14:17:09.526Z,39.38
2019-02-06T14:18:09.518Z,39.38
2019-02-06T14:19:09.504Z,45.00
2019-02-06T14:20:09.500Z,50.62
2019-02-06T14:21:09.503Z,50.62
2019-02-06T14:22:10.032Z,50.62
2019-02-06T14:23:09.457Z,45.00
2019-02-06T14:24:09.459Z,50.62
2019-02-06T14:25:09.449Z,50.62
2019-02-06T14:26:09.446Z,50.62
2019-02-06T14:27:09.416Z,56.25
2019-02-06T14:28:09.408Z,50.62
2019-02-06T14:29:09.391Z,50.62
2019-02-06T14:30:09.378Z,45.00
2019-02-06T14:31:09.398Z,39.38
2019-02-06T14:32:09.369Z,39.38
2019-02-06T14:33:09.360Z,39.38
2019-02-06T14:34:09.342Z,33.75
2019-02-06T14:35:09.327Z,28.12
2019-02-06T14:36:09.332Z,33.75
2019-02-06T14:37:09.316Z,39.38
2019-02-06T14:38:09.312Z,45.00
2019-02-06T14:39:09.280Z,45.00
2019-02-06T14:40:09.280Z,39.38
2019-02-06T14:41:09.288Z,39.38
2019-02-06T14:42:09.249Z,39.38
2019-02-06T14:43:09.242Z,39.38
2019-02-06T14:44:09.255Z,39.38
2019-02-06T14:45:09.322Z,33.75
2019-02-06T14:46:09.232Z,45.00
2019-02-06T14:47:09.208Z,45.00
2019-02-06T14:48:09.183Z,39.38
2019-02-06T14:49:09.212Z,39.38
2019-02-06T14:50:09.160Z,33.75
2019-02-06T14:51:09.182Z,33.75
2019-02-06T14:52:09.138Z,28.12
2019-02-06T14:53:09.124Z,28.12
2019-02-06T14:54:09.115Z,33.75
2019-02-06T14:55:09.106Z,28.12
2019-02-06T14:56:09.120Z,28.12
2019-02-06T14:57:09.082Z,22.50
2019-02-06T14:58:09.072Z,22.50
2019-02-06T14:59:09.062Z,22.50
2019-02-06T15:00:09.053Z,22.50
2019-02-06T15:01:09.060Z,22.50
2019-02-06T15:02:09.025Z,22.50
2019-02-06T15:03:09.017Z,16.88
2019-02-06T15:04:09.001Z,16.88
2019-02-06T15:05:08.991Z,16.88
2019-02-06T15:06:09.003Z,16.88
2019-02-06T15:07:08.971Z,16.88
2019-02-06T15:08:08.958Z,16.88
2019-02-06T15:09:08.950Z,16.88
2019-02-06T15:10:08.938Z,16.88
2019-02-06T15:11:19.170Z,16.88
2019-02-06T15:12:09.925Z,16.88
2019-02-06T15:13:08.911Z,16.88
2019-02-06T15:14:08.899Z,22.50
2019-02-06T15:15:08.884Z,22.50
2019-02-06T15:16:08.902Z,16.88
2019-02-06T15:17:08.864Z,16.88
2019-02-06T15:18:08.853Z,22.50
2019-02-06T15:19:08.851Z,22.50
2019-02-06T15:20:08.834Z,22.50
2019-02-06T15:21:08.842Z,22.50
2019-02-06T15:22:08.823Z,28.12
2019-02-06T15:23:08.798Z,28.12
2019-02-06T15:24:08.785Z,22.50
2019-02-06T15:25:08.786Z,22.50
2019-02-06T15:26:08.784Z,22.50
2019-02-06T15:27:08.757Z,28.12
2019-02-06T15:28:08.756Z,22.50
2019-02-06T15:29:08.728Z,22.50
2019-02-06T15:30:08.719Z,16.88
2019-02-06T15:31:08.727Z,16.88
2019-02-06T15:32:08.696Z,16.88
2019-02-06T15:33:08.687Z,16.88
2019-02-06T15:34:08.695Z,16.88
2019-02-06T15:35:08.664Z,16.88
2019-02-06T15:36:08.675Z,16.88
2019-02-06T15:37:08.646Z,16.88
2019-02-06T15:38:08.631Z,11.25
2019-02-06T15:39:08.619Z,11.25
2019-02-06T15:40:08.627Z,11.25
2019-02-06T15:41:08.662Z,11.25
2019-02-06T15:42:08.589Z,11.25
2019-02-06T15:43:08.582Z,16.88
2019-02-06T15:44:08.565Z,16.88
2019-02-06T15:45:08.566Z,16.88
2019-02-06T15:46:08.549Z,16.88
2019-02-06T15:47:08.554Z,16.88
2019-02-06T15:48:10.824Z,16.88
2019-02-06T15:49:08.520Z,16.88
2019-02-06T15:50:08.506Z,16.88
2019-02-06T15:51:08.494Z,16.88
2019-02-06T15:52:08.513Z,11.25
2019-02-06T15:53:08.474Z,11.25
2019-02-06T15:54:08.480Z,11.25
2019-02-06T15:55:08.481Z,11.25
2019-02-06T15:56:08.436Z,11.25
2019-02-06T15:57:08.447Z,11.25
2019-02-06T15:58:11.268Z,11.25
2019-02-06T15:59:08.403Z,11.25
2019-02-06T16:00:08.396Z,11.25
2019-02-06T16:01:08.381Z,11.25
2019-02-06T16:02:08.393Z,11.25
2019-02-06T16:03:08.358Z,11.25
2019-02-06T16:04:08.352Z,5.62
2019-02-06T16:05:08.345Z,5.62
2019-02-06T16:06:08.333Z,5.62
2019-02-06T16:07:08.340Z,5.62
2019-02-06T16:08:08.382Z,5.62
2019-02-06T16:09:08.296Z,5.62
2019-02-06T16:10:08.286Z,5.62
2019-02-06T16:11:08.272Z,5.62
2019-02-06T16:12:08.281Z,5.62
2019-02-06T16:13:08.266Z,5.62
2019-02-06T16:14:08.242Z,5.62
2019-02-06T16:15:08.247Z,5.62
2019-02-06T16:16:08.271Z,5.62
2019-02-06T16:17:08.249Z,0.00
2019-02-06T16:18:08.199Z,0.00
2019-02-06T16:19:08.202Z,0.00
2019-02-06T16:20:08.181Z,0.00
2019-02-06T16:21:08.185Z,0.00
2019-02-06T16:22:08.174Z,0.00
2019-02-06T16:23:08.146Z,0.00
2019-02-06T16:24:08.138Z,0.00
2019-02-06T16:25:08.122Z,0.00
2019-02-06T16:26:08.109Z,0.00
2019-02-06T16:27:08.121Z,0.00
2019-02-06T16:28:08.094Z,0.00
2019-02-06T16:29:08.080Z,0.00
2019-02-06T16:30:08.082Z,0.00
2019-02-06T16:31:08.057Z,0.00
2019-02-06T16:32:08.064Z,0.00
2019-02-06T16:33:08.033Z,0.00
2019-02-06T16:34:08.024Z,0.00
2019-02-06T16:35:08.012Z,0.00
2019-02-06T16:36:08.008Z,0.00
2019-02-06T16:37:08.013Z,0.00
2019-02-06T16:38:07.981Z,0.00
2019-02-06T16:39:07.981Z,0.00
2019-02-06T16:40:07.959Z,0.00
2019-02-06T16:41:07.954Z,0.00
2019-02-06T16:42:07.963Z,0.00
2019-02-06T16:43:07.924Z,0.00
2019-02-06T16:44:07.922Z,0.00
2019-02-06T16:45:07.903Z,0.00
2019-02-06T16:46:07.893Z,0.00
2019-02-06T16:47:07.901Z,0.00
2019-02-06T16:48:07.884Z,0.00
2019-02-06T16:49:07.861Z,0.00
2019-02-06T16:50:07.849Z,0.00
2019-02-06T16:51:07.843Z,0.00
2019-02-06T16:52:07.850Z,0.00
2019-02-06T16:53:07.841Z,0.00
2019-02-06T16:54:07.819Z,0.00
2019-02-06T16:55:07.802Z,0.00
2019-02-06T16:56:07.783Z,0.00
2019-02-06T16:57:07.777Z,0.00
2019-02-06T16:58:07.782Z,0.00
2019-02-06T16:59:07.760Z,0.00
2019-02-06T17:00:07.743Z,0.00
2019-02-06T17:01:07.737Z,0.00
2019-02-06T17:02:07.728Z,0.00
2019-02-06T17:03:07.730Z,0.00
2019-02-06T17:04:07.716Z,0.00
2019-02-06T17:05:07.697Z,0.00
2019-02-06T17:06:07.680Z,0.00
2019-02-06T17:07:07.668Z,0.00
2019-02-06T17:08:07.696Z,0.00
2019-02-06T17:09:07.654Z,0.00
2019-02-06T17:10:07.634Z,0.00
2019-02-06T17:11:07.626Z,0.00
2019-02-06T17:12:07.621Z,0.00
2019-02-06T17:13:07.622Z,0.00
2019-02-06T17:14:07.593Z,0.00
2019-02-06T17:15:07.589Z,0.00
2019-02-06T17:16:07.573Z,0.00
2019-02-06T17:17:07.562Z,0.00
2019-02-06T17:18:07.581Z,0.00
2019-02-06T17:19:07.539Z,0.00
2019-02-06T17:20:07.533Z,0.00
2019-02-06T17:21:07.527Z,0.00
2019-02-06T17:22:07.538Z,0.00
2019-02-06T17:23:07.520Z,0.00
2019-02-06T17:24:07.496Z,0.00
2019-02-06T17:25:07.478Z,0.00
2019-02-06T17:26:07.468Z,0.00
2019-02-06T17:27:07.457Z,0.00
2019-02-06T17:28:07.467Z,0.00
2019-02-06T17:29:07.448Z,0.00
2019-02-06T17:30:07.434Z,0.00
2019-02-06T17:31:07.420Z,0.00
2019-02-06T17:32:07.406Z,0.00
2019-02-06T17:33:07.415Z,0.00
2019-02-06T17:34:07.384Z,0.00
2019-02-06T17:35:07.384Z,0.00
2019-02-06T17:36:07.365Z,0.00
2019-02-06T17:37:07.357Z,0.00
2019-02-06T17:38:07.368Z,0.00
2019-02-06T17:39:07.333Z,0.00
2019-02-06T17:40:07.323Z,0.00
2019-02-06T17:41:07.316Z,0.00
2019-02-06T17:42:15.415Z,0.00
2019-02-06T17:43:08.320Z,0.00
2019-02-06T17:44:07.282Z,0.00
2019-02-06T17:45:07.276Z,0.00
2019-02-06T17:46:07.262Z,0.00
2019-02-06T17:47:07.272Z,0.00
2019-02-06T17:48:07.263Z,0.00
2019-02-06T17:49:07.231Z,0.00
2019-02-06T17:50:07.227Z,0.00
2019-02-06T17:51:07.211Z,0.00
2019-02-06T17:52:07.209Z,0.00
2019-02-06T17:53:07.207Z,0.00
2019-02-06T17:54:07.181Z,0.00
2019-02-06T17:55:07.168Z,0.00
2019-02-06T17:56:07.170Z,0.00
2019-02-06T17:57:07.147Z,0.00
2019-02-06T17:58:07.162Z,0.00
2019-02-06T17:59:07.125Z,0.00
2019-02-06T18:00:07.118Z,0.00
2019-02-06T18:01:07.108Z,0.00
2019-02-06T18:02:07.111Z,0.00
2019-02-06T18:03:07.112Z,0.00
2019-02-06T18:04:07.081Z,0.00
2019-02-06T18:05:07.066Z,0.00
2019-02-06T18:06:07.055Z,0.00
2019-02-06T18:07:07.052Z,0.00
2019-02-06T18:08:07.074Z,0.00
2019-02-06T18:09:07.028Z,0.00
2019-02-06T18:10:07.016Z,0.00
2019-02-06T18:11:07.004Z,0.00
2019-02-06T18:12:06.995Z,0.00
2019-02-06T18:13:07.009Z,0.00
2019-02-06T18:14:06.987Z,0.00
2019-02-06T18:15:06.972Z,0.00
2019-02-06T18:16:06.962Z,0.00
2019-02-06T18:17:06.942Z,0.00
2019-02-06T18:18:06.955Z,0.00
2019-02-06T18:19:06.922Z,0.00
2019-02-06T18:20:06.918Z,0.00
2019-02-06T18:21:06.901Z,0.00
2019-02-06T18:22:06.920Z,0.00
2019-02-06T18:23:07.007Z,0.00
2019-02-06T18:24:06.872Z,0.00
2019-02-06T18:25:06.858Z,0.00
2019-02-06T18:26:06.858Z,0.00
2019-02-06T18:27:06.843Z,0.00
2019-02-06T18:28:06.850Z,0.00
2019-02-06T18:29:06.822Z,0.00
2019-02-06T18:30:06.811Z,0.00
2019-02-06T18:31:06.806Z,0.00
2019-02-06T18:32:06.788Z,0.00
2019-02-06T18:33:06.795Z,0.00